Time;durP1;ratioP1;P1;durP2;ratioP2;P2;SDS_P1;SDS_P2;PMS_P1;PMS_P2;Temp;Humidity;BMP_temperature;BMP_pressure;BME280_temperature;BME280_humidity;BME280_pressure;Samples;Min_cycle;Max_cycle;Signal;HPM_P1;HPM_P2
2023/04/03 00:01:08;;;;;;;6.03;3.67;;;;;;;11.17;46.29;94294.94;4998710;28;20196;-66
2023/04/03 00:03:33;;;;;;;8.95;3.75;;;;;;;11.15;46.28;94294.28;4969853;28;20184;-66
2023/04/03 00:05:59;;;;;;;7.10;4.63;;;;;;;11.17;45.77;94292.28;4995789;28;20859;-65
2023/04/03 00:08:25;;;;;;;7.35;4.45;;;;;;;11.01;46.45;94294.97;4964529;28;20191;-67
2023/04/03 00:10:50;;;;;;;8.55;5.65;;;;;;;11.05;46.17;94285.78;4968192;28;20193;-65
2023/04/03 00:13:16;;;;;;;10.13;5.95;;;;;;;10.92;46.56;94288.13;4968781;28;20322;-66
2023/04/03 00:15:42;;;;;;;9.15;5.30;;;;;;;10.95;46.69;94290.41;4967940;28;20202;-66
2023/04/03 00:18:08;;;;;;;8.93;5.10;;;;;;;10.95;46.78;94272.81;4963515;28;20587;-66
2023/04/03 00:20:33;;;;;;;6.93;4.68;;;;;;;10.98;46.93;94290.06;4997131;28;20240;-66
2023/04/03 00:22:59;;;;;;;7.45;4.95;;;;;;;10.89;46.95;94280.59;4970412;28;20192;-67
2023/04/03 00:25:25;;;;;;;8.13;4.70;;;;;;;10.88;46.81;94271.88;4968340;28;20578;-66
2023/04/03 00:27:50;;;;;;;11.38;4.88;;;;;;;10.80;47.21;94275.38;4999011;28;20263;-67
2023/04/03 00:30:18;;;;;;;6.75;5.05;;;;;;;10.68;47.39;94275.91;4965861;28;20287;-68
2023/04/03 00:32:44;;;;;;;5.15;3.78;;;;;;;10.71;46.93;94278.19;4965960;28;20294;-67
2023/04/03 00:35:10;;;;;;;7.30;4.70;;;;;;;10.80;47.38;94287.72;4973209;28;20974;-67
2023/04/03 00:37:36;;;;;;;6.25;4.65;;;;;;;10.68;47.82;94281.16;4970801;28;20310;-67
2023/04/03 00:40:03;;;;;;;8.15;4.13;;;;;;;10.69;47.67;94293.31;5000305;28;20739;-67
2023/04/03 00:42:28;;;;;;;9.00;4.00;;;;;;;10.65;47.77;94284.16;4969245;28;20229;-67
2023/04/03 00:44:57;;;;;;;3.50;2.72;;;;;;;10.63;47.52;94286.94;4966137;28;20251;-68
2023/04/03 00:47:24;;;;;;;3.95;2.50;;;;;;;10.54;47.49;94283.50;4997833;28;20188;-67
2023/04/03 00:49:51;;;;;;;3.47;2.47;;;;;;;10.53;47.30;94287.16;4967712;28;20195;-67
2023/04/03 00:52:21;;;;;;;3.30;2.40;;;;;;;10.53;47.26;94281.88;4965343;28;20334;-66
2023/04/03 00:54:50;;;;;;;4.32;2.28;;;;;;;10.58;46.84;94290.09;4973962;28;20192;-67
2023/04/03 00:57:16;;;;;;;4.03;3.22;;;;;;;10.50;48.03;94292.72;4969872;28;20235;-67
2023/04/03 00:59:46;;;;;;;6.07;3.78;;;;;;;10.44;48.33;94290.78;4999493;28;20196;-67
2023/04/03 01:02:12;;;;;;;9.35;3.25;;;;;;;10.43;48.20;94297.03;4966352;28;20192;-67
2023/04/03 01:04:40;;;;;;;4.22;3.13;;;;;;;10.19;48.85;94294.44;4970026;28;20239;-66
2023/04/03 01:07:10;;;;;;;4.55;2.85;;;;;;;10.04;49.23;94299.53;5003472;28;20189;-66
2023/04/03 01:09:37;;;;;;;3.90;3.17;;;;;;;9.66;50.40;94291.34;4973629;28;20184;-66
2023/04/03 01:12:19;;;;;;;4.68;3.58;;;;;;;9.67;50.72;94298.22;4997087;28;20180;-65
2023/04/03 01:14:46;;;;;;;4.65;3.80;;;;;;;9.85;50.22;94295.44;4971241;28;20202;-66
2023/04/03 01:17:33;;;;;;;4.43;3.87;;;;;;;9.98;50.21;94293.13;5004468;28;20219;-65
2023/04/03 01:20:27;;;;;;;6.00;3.85;;;;;;;9.88;50.28;94288.03;4997758;28;20192;-66
2023/04/03 01:23:06;;;;;;;6.17;3.63;;;;;;;9.92;50.38;94291.19;4974600;28;20203;-66
2023/04/03 01:25:32;;;;;;;5.28;4.68;;;;;;;9.59;50.97;94290.34;4979737;28;20289;-66
2023/04/03 01:27:58;;;;;;;7.22;4.10;;;;;;;9.46;51.52;94290.81;4979048;28;20230;-65
2023/04/03 01:30:30;;;;;;;6.63;4.10;;;;;;;9.67;51.09;94290.34;4991741;28;20183;-66
2023/04/03 01:32:56;;;;;;;7.22;4.28;;;;;;;9.75;50.88;94300.03;4991717;28;20195;-65
2023/04/03 01:35:21;;;;;;;4.97;3.90;;;;;;;9.73;50.69;94292.34;4977814;28;20195;-64
2023/04/03 01:37:47;;;;;;;7.13;4.30;;;;;;;9.62;51.23;94288.22;4993135;28;20238;-66
2023/04/03 01:40:12;;;;;;;4.88;3.85;;;;;;;9.61;51.30;94293.63;4998112;28;20207;-67
2023/04/03 01:42:38;;;;;;;6.53;3.95;;;;;;;9.69;50.79;94285.75;4982195;28;20330;-67
2023/04/03 01:45:03;;;;;;;5.90;3.93;;;;;;;9.62;51.36;94284.75;4976022;28;20192;-67
2023/04/03 01:47:29;;;;;;;6.45;4.28;;;;;;;9.58;51.67;94294.78;4983862;28;20230;-66
2023/04/03 01:49:54;;;;;;;5.88;4.00;;;;;;;9.62;51.17;94296.09;4997269;28;20202;-67
2023/04/03 01:52:20;;;;;;;4.47;3.70;;;;;;;9.56;51.26;94290.66;4994696;28;20294;-66
2023/04/03 01:54:45;;;;;;;4.00;3.60;;;;;;;9.65;51.22;94294.94;4977828;28;20283;-66
2023/04/03 01:57:11;;;;;;;7.22;4.63;;;;;;;9.59;51.25;94298.22;4992125;28;21055;-66
2023/04/03 01:59:36;;;;;;;5.75;3.90;;;;;;;9.69;50.96;94301.50;4971955;28;20204;-65
2023/04/03 02:02:02;;;;;;;7.50;4.83;;;;;;;9.69;50.84;94294.44;4966733;28;20316;-65
2023/04/03 02:04:27;;;;;;;10.47;4.60;;;;;;;9.58;51.43;94294.78;4972145;28;20184;-65
2023/04/03 02:06:53;;;;;;;9.18;4.20;;;;;;;9.57;51.48;94290.53;4970383;28;20213;-65
2023/04/03 02:09:18;;;;;;;6.60;3.83;;;;;;;9.64;50.94;94298.56;4969486;28;20555;-65
2023/04/03 02:11:44;;;;;;;6.75;4.30;;;;;;;9.67;50.86;94298.22;4996628;28;20188;-65
2023/04/03 02:14:09;;;;;;;5.10;3.73;;;;;;;9.65;50.29;94300.19;4998820;28;20728;-66
2023/04/03 02:16:35;;;;;;;5.70;3.70;;;;;;;9.67;49.98;94301.66;5001610;28;20192;-66
2023/04/03 02:19:00;;;;;;;5.83;4.63;;;;;;;9.70;49.92;94309.22;4968225;28;20195;-65
2023/04/03 02:21:25;;;;;;;5.87;4.47;;;;;;;9.53;50.29;94307.56;4971621;28;20256;-65
2023/04/03 02:23:51;;;;;;;6.73;4.57;;;;;;;9.64;50.04;94294.13;4968823;28;20254;-65
2023/04/03 02:26:17;;;;;;;6.17;4.63;;;;;;;9.63;50.24;94292.47;4969010;28;20197;-66
2023/04/03 02:28:42;;;;;;;9.33;6.00;;;;;;;9.61;50.26;94294.44;4971163;28;20648;-66
2023/04/03 02:31:09;;;;;;;7.90;6.40;;;;;;;9.57;50.05;94290.53;4964005;28;20223;-65
2023/04/03 02:33:36;;;;;;;10.47;6.63;;;;;;;9.56;50.41;94293.28;4995504;28;20192;-65
2023/04/03 02:36:04;;;;;;;12.00;6.83;;;;;;;9.45;50.52;94284.75;4964230;28;20712;-66
2023/04/03 02:38:29;;;;;;;9.80;6.40;;;;;;;9.44;50.40;94285.75;4970605;28;20243;-65
2023/04/03 02:41:21;;;;;;;8.23;6.17;;;;;;;9.44;50.31;94280.50;4997159;28;20189;-65
2023/04/03 02:43:47;;;;;;;8.73;6.43;;;;;;;9.47;50.38;94287.22;4964844;28;20224;-65
2023/04/03 02:46:14;;;;;;;8.97;6.80;;;;;;;9.35;50.57;94291.94;4961054;28;20694;-66
2023/04/03 02:48:40;;;;;;;7.37;6.13;;;;;;;9.30;50.57;94283.75;4994583;28;20317;-66
2023/04/03 02:51:05;;;;;;;6.80;5.87;;;;;;;9.30;50.40;94288.19;4995811;28;20315;-65
2023/04/03 02:53:31;;;;;;;6.90;6.10;;;;;;;9.20;50.81;94278.66;4969955;28;20207;-65
2023/04/03 02:55:56;;;;;;;7.50;6.13;;;;;;;9.25;50.57;94267.69;5001903;28;20200;-66
2023/04/03 02:58:22;;;;;;;6.80;6.10;;;;;;;9.18;51.06;94274.56;4967785;28;20193;-65
2023/04/03 03:00:47;;;;;;;9.90;6.10;;;;;;;9.16;50.98;94269.47;4998053;28;20274;-65
2023/04/03 03:03:14;;;;;;;6.67;5.33;;;;;;;9.16;50.86;94269.47;4972896;28;20192;-66
2023/04/03 03:05:39;;;;;;;7.60;5.27;;;;;;;9.11;51.38;94260.44;4995611;28;20215;-66
2023/04/03 03:08:05;;;;;;;7.17;5.50;;;;;;;9.09;51.27;94268.50;5002331;28;20258;-67
2023/04/03 03:10:30;;;;;;;8.00;5.57;;;;;;;8.98;51.78;94266.16;4963844;28;20244;-67
2023/04/03 03:12:56;;;;;;;7.37;5.40;;;;;;;8.96;52.07;94263.69;4970123;28;20203;-65
2023/04/03 03:15:21;;;;;;;10.57;5.53;;;;;;;8.90;51.74;94255.63;4998586;28;20254;-66
2023/04/03 03:17:47;;;;;;;10.70;6.07;;;;;;;9.05;51.74;94254.03;4967811;28;20189;-66
2023/04/03 03:20:14;;;;;;;12.77;5.70;;;;;;;9.11;51.38;94249.94;4964293;28;20226;-65
2023/04/03 03:22:40;;;;;;;12.80;5.90;;;;;;;9.03;51.71;94263.88;5000734;28;20223;-65
2023/04/03 03:25:06;;;;;;;10.63;5.70;;;;;;;9.01;51.79;94261.41;4969697;28;20226;-65
2023/04/03 03:27:31;;;;;;;12.93;6.00;;;;;;;9.03;51.97;94264.72;4967525;28;20216;-66
2023/04/03 03:29:56;;;;;;;11.50;5.50;;;;;;;8.94;51.90;94256.97;4993540;28;20195;-65
2023/04/03 03:32:22;;;;;;;8.47;4.87;;;;;;;8.94;51.87;94252.53;4995377;28;20192;-65
2023/04/03 03:34:47;;;;;;;7.23;4.60;;;;;;;8.89;52.30;94257.44;4969081;28;20385;-65
2023/04/03 03:37:13;;;;;;;9.90;4.83;;;;;;;8.91;51.88;94254.69;4963070;28;20187;-66
2023/04/03 03:39:38;;;;;;;6.10;5.00;;;;;;;8.88;52.44;94265.50;4971591;28;20193;-66
2023/04/03 03:42:04;;;;;;;10.63;5.30;;;;;;;8.83;52.27;94264.16;4966897;28;20901;-66
2023/04/03 03:44:29;;;;;;;10.53;5.17;;;;;;;8.87;52.20;94264.63;4984686;28;20196;-65
2023/04/03 03:46:56;;;;;;;12.90;5.20;;;;;;;8.84;51.95;94260.53;4998456;28;20247;-64
2023/04/03 03:49:21;;;;;;;10.97;4.70;;;;;;;8.89;52.26;94257.44;4967242;28;20212;-66
2023/04/03 03:51:47;;;;;;;7.47;4.80;;;;;;;8.81;52.41;94255.63;4968830;28;20283;-65
2023/04/03 03:54:13;;;;;;;12.93;4.57;;;;;;;8.83;52.59;94269.41;4967643;28;20192;-65
2023/04/03 03:56:38;;;;;;;8.47;4.10;;;;;;;8.80;52.73;94261.84;4974592;28;20330;-65
2023/04/03 03:59:04;;;;;;;10.60;5.27;;;;;;;8.83;52.17;94260.72;4970871;28;20295;-65
2023/04/03 04:01:30;;;;;;;8.50;5.57;;;;;;;8.83;52.77;94263.34;4995325;28;20259;-66
2023/04/03 04:03:55;;;;;;;10.77;5.50;;;;;;;8.78;52.90;94263.00;4963798;28;20188;-64
2023/04/03 04:06:21;;;;;;;11.13;5.37;;;;;;;8.73;53.11;94263.47;4968159;28;20195;-65
2023/04/03 04:08:46;;;;;;;13.37;5.93;;;;;;;8.67;53.10;94263.28;4969117;28;20230;-65
2023/04/03 04:11:12;;;;;;;13.47;6.07;;;;;;;8.67;53.10;94253.63;4996334;28;20195;-65
2023/04/03 04:13:37;;;;;;;12.20;6.03;;;;;;;8.65;53.27;94250.31;4969315;28;20279;-65
2023/04/03 04:16:03;;;;;;;12.97;5.40;;;;;;;8.66;53.33;94259.00;4967889;28;20280;-65
2023/04/03 04:18:29;;;;;;;13.23;4.87;;;;;;;8.70;53.01;94278.69;4968386;28;20216;-65
2023/04/03 04:20:54;;;;;;;15.70;5.50;;;;;;;8.71;53.14;94275.09;4996406;28;20188;-65
2023/04/03 04:23:20;;;;;;;12.93;6.50;;;;;;;8.69;53.01;94279.69;4967941;28;20224;-66
2023/04/03 04:25:47;;;;;;;15.33;6.83;;;;;;;8.61;52.92;94278.66;4998726;28;20192;-66
2023/04/03 04:28:12;;;;;;;13.17;7.07;;;;;;;8.51;53.15;94285.00;4971915;28;20212;-65
2023/04/03 04:30:38;;;;;;;9.77;6.13;;;;;;;8.55;53.29;94281.91;4999725;28;20221;-65
2023/04/03 04:33:03;;;;;;;9.70;6.70;;;;;;;8.51;54.04;94270.09;4972073;28;20196;-65
2023/04/03 04:35:29;;;;;;;17.53;9.77;;;;;;;8.65;53.81;94271.28;4968317;28;20193;-65
2023/04/03 04:37:54;;;;;;;13.70;7.03;;;;;;;8.50;54.01;94278.94;4970006;28;20189;-65
2023/04/03 04:40:20;;;;;;;15.23;6.83;;;;;;;8.28;54.83;94301.22;4971818;28;20223;-64
2023/04/03 04:42:46;;;;;;;9.23;6.40;;;;;;;8.47;54.30;94294.13;4983665;28;20196;-65
2023/04/03 04:45:11;;;;;;;10.27;6.93;;;;;;;8.48;53.76;94294.00;5003364;28;20303;-64
2023/04/03 04:47:37;;;;;;;13.63;8.00;;;;;;;8.57;53.74;94298.28;4972815;28;20233;-64
2023/04/03 04:50:03;;;;;;;14.83;7.07;;;;;;;8.47;54.36;94304.63;4969561;28;20196;-65
2023/04/03 04:52:28;;;;;;;14.80;7.30;;;;;;;8.48;54.49;94301.03;4971801;28;20266;-65
2023/04/03 04:54:54;;;;;;;16.57;7.43;;;;;;;8.41;54.87;94300.84;5005082;28;20682;-65
2023/04/03 04:57:19;;;;;;;10.30;7.23;;;;;;;8.58;54.36;94304.34;4974013;28;20286;-65
2023/04/03 04:59:45;;;;;;;18.23;9.07;;;;;;;8.62;54.01;94303.06;4967144;28;20188;-65
2023/04/03 05:02:10;;;;;;;16.77;10.73;;;;;;;8.75;54.12;94313.13;4967045;28;20212;-67
2023/04/03 05:04:35;;;;;;;20.03;11.10;;;;;;;8.78;53.61;94316.22;4970919;28;20196;-68
2023/04/03 05:07:01;;;;;;;33.27;24.23;;;;;;;8.78;53.43;94321.47;5001942;28;20216;-66
2023/04/03 05:09:26;;;;;;;26.73;20.90;;;;;;;8.85;53.02;94319.06;4973486;28;20192;-64
2023/04/03 05:11:52;;;;;;;18.50;13.90;;;;;;;8.98;52.97;94336.94;4968671;28;20196;-65
2023/04/03 05:14:17;;;;;;;15.73;12.07;;;;;;;8.91;53.54;94339.38;4967044;28;20311;-66
2023/04/03 05:16:43;;;;;;;19.73;11.27;;;;;;;8.99;53.53;94330.75;4998270;28;20205;-66
2023/04/03 05:19:08;;;;;;;17.80;9.53;;;;;;;8.95;53.82;94343.31;4967964;28;20196;-64
2023/04/03 05:21:34;;;;;;;18.67;8.10;;;;;;;8.89;53.74;94340.53;4971555;28;20184;-63
2023/04/03 05:24:02;;;;;;;17.10;8.43;;;;;;;8.71;54.31;94343.22;4997124;28;20223;-66
2023/04/03 05:26:29;;;;;;;22.10;8.70;;;;;;;8.76;54.25;94335.72;4978947;28;20224;-62
2023/04/03 05:28:55;;;;;;;17.77;8.37;;;;;;;9.02;53.43;94331.22;4997987;28;20304;-63
2023/04/03 05:31:20;;;;;;;18.57;8.23;;;;;;;9.19;53.17;94326.84;4970066;28;20232;-66
2023/04/03 05:33:46;;;;;;;14.33;7.63;;;;;;;9.30;52.51;94328.34;4966856;28;20278;-65
2023/04/03 05:36:12;;;;;;;17.33;7.57;;;;;;;9.35;52.02;94320.81;4966840;28;20203;-67
2023/04/03 05:38:38;;;;;;;14.50;8.17;;;;;;;9.43;52.05;94322.63;4965796;28;20192;-68
2023/04/03 05:41:03;;;;;;;17.17;7.83;;;;;;;9.46;51.87;94311.81;4966512;28;20213;-66
2023/04/03 05:43:29;;;;;;;13.00;8.97;;;;;;;9.53;51.82;94318.06;4953865;28;20232;-68
2023/04/03 05:45:54;;;;;;;21.23;10.53;;;;;;;9.54;52.05;94317.06;4966312;28;20195;-66
2023/04/03 05:48:20;;;;;;;19.77;10.43;;;;;;;9.46;52.65;94323.16;4970635;28;20282;-71
2023/04/03 05:50:46;;;;;;;20.83;11.70;;;;;;;9.35;53.06;94314.75;4969160;28;20243;-68
2023/04/03 05:53:33;;;;;;;21.80;12.50;;;;;;;9.53;52.84;94312.00;4969888;28;20192;-68
2023/04/03 05:55:58;;;;;;;21.47;13.97;;;;;;;9.37;53.06;94310.16;4962011;28;20192;-69
2023/04/03 05:58:24;;;;;;;19.17;13.97;;;;;;;9.61;52.35;94318.06;4967574;28;20258;-66
2023/04/03 06:00:49;;;;;;;22.50;13.60;;;;;;;9.80;51.69;94308.22;4969893;28;20196;-66
2023/04/03 06:03:15;;;;;;;15.20;11.43;;;;;;;9.84;51.35;94306.94;4969669;28;20196;-68
2023/04/03 06:05:41;;;;;;;17.03;11.70;;;;;;;9.88;51.53;94316.09;4993338;28;20196;-63
2023/04/03 06:08:07;;;;;;;24.30;12.40;;;;;;;9.82;51.50;94303.66;4974871;28;20212;-67
2023/04/03 06:10:32;;;;;;;20.08;11.55;;;;;;;9.96;51.11;94295.09;4965284;28;20188;-67
2023/04/03 06:12:58;;;;;;;14.60;10.25;;;;;;;10.16;50.39;94299.03;4961613;28;20239;-69
2023/04/03 06:15:23;;;;;;;18.65;9.18;;;;;;;10.03;50.55;94295.25;4989242;28;20191;-71
2023/04/03 06:17:49;;;;;;;18.63;9.60;;;;;;;10.03;50.76;94287.38;4960408;28;20248;-66
2023/04/03 06:20:14;;;;;;;14.40;9.63;;;;;;;10.01;50.96;94284.91;4960677;28;20196;-71
2023/04/03 06:22:41;;;;;;;13.75;8.57;;;;;;;10.23;50.74;94287.84;4960423;28;20192;-70
2023/04/03 06:25:07;;;;;;;18.88;9.52;;;;;;;9.78;51.29;94283.94;4949449;28;20343;-67
2023/04/03 06:27:33;;;;;;;12.55;9.05;;;;;;;9.75;51.63;94292.97;4954451;28;20213;-72
2023/04/03 06:29:58;;;;;;;13.70;8.97;;;;;;;9.52;52.82;94300.69;4986345;28;20236;-62
2023/04/03 06:32:24;;;;;;;16.88;9.25;;;;;;;9.35;53.33;94306.88;4958030;28;20220;-64
2023/04/03 06:34:50;;;;;;;17.83;10.90;;;;;;;9.66;52.00;94307.91;4962379;28;20271;-66
2023/04/03 06:37:21;;;;;;;21.70;10.50;;;;;;;9.96;51.28;94313.47;4960497;28;20305;-67
2023/04/03 06:39:47;;;;;;;16.52;10.50;;;;;;;10.19;50.75;94318.88;4992049;28;20225;-65
2023/04/03 06:42:13;;;;;;;17.33;9.95;;;;;;;10.35;50.05;94316.25;4961484;28;20236;-69
2023/04/03 06:44:41;;;;;;;20.35;12.63;;;;;;;10.47;49.80;94310.63;4988237;28;20203;-68
2023/04/03 06:47:08;;;;;;;19.42;12.70;;;;;;;10.51;49.72;94312.78;4963029;28;20219;-70
2023/04/03 06:49:33;;;;;;;22.58;12.55;;;;;;;10.64;49.28;94306.16;4972310;28;20224;-66
2023/04/03 06:51:59;;;;;;;32.42;14.50;;;;;;;10.70;49.22;94302.84;4973175;28;20333;-67
2023/04/03 06:54:24;;;;;;;23.48;12.32;;;;;;;10.64;49.03;94309.63;4957546;28;20230;-66
2023/04/03 06:56:50;;;;;;;21.60;12.52;;;;;;;10.77;48.64;94317.78;4961695;28;20189;-65
2023/04/03 06:59:16;;;;;;;23.50;11.88;;;;;;;10.72;48.88;94319.25;4964258;28;20291;-68
2023/04/03 07:01:42;;;;;;;18.02;12.45;;;;;;;10.74;48.72;94320.72;4959113;28;20230;-68
2023/04/03 07:04:08;;;;;;;27.65;11.82;;;;;;;10.83;48.35;94324.19;4963380;28;20240;-68
2023/04/03 07:06:34;;;;;;;31.17;11.30;;;;;;;10.94;48.68;94313.28;4962780;28;20255;-67
2023/04/03 07:09:00;;;;;;;21.90;11.10;;;;;;;11.05;48.29;94319.97;4960299;28;20234;-66
2023/04/03 07:11:26;;;;;;;19.15;10.63;;;;;;;11.01;48.13;94300.25;4960436;28;20192;-63
2023/04/03 07:13:52;;;;;;;18.30;10.45;;;;;;;11.07;48.17;94304.03;4961070;28;20654;-64
2023/04/03 07:16:17;;;;;;;17.88;11.55;;;;;;;10.96;48.41;94307.81;4962019;28;20278;-66
2023/04/03 07:18:43;;;;;;;18.77;9.57;;;;;;;11.14;47.92;94297.06;4959796;28;20255;-66
2023/04/03 07:21:09;;;;;;;13.48;8.20;;;;;;;11.25;47.82;94299.28;4991535;28;20227;-65
2023/04/03 07:23:34;;;;;;;10.40;7.43;;;;;;;11.28;47.66;94304.25;4962344;28;20280;-67
2023/04/03 07:26:01;;;;;;;9.73;7.03;;;;;;;11.39;47.28;94285.41;4961744;28;20196;-67
2023/04/03 07:28:26;;;;;;;14.85;7.43;;;;;;;11.38;47.33;94288.19;4960363;28;20219;-67
2023/04/03 07:31:00;;;;;;;13.60;7.22;;;;;;;11.54;46.90;94296.00;4991965;28;20265;-69
2023/04/03 07:33:26;;;;;;;11.65;8.45;;;;;;;11.55;46.89;94283.66;4977262;28;20276;-68
2023/04/03 07:35:51;;;;;;;13.30;8.00;;;;;;;11.57;46.92;94279.03;4963836;28;20215;-66
2023/04/03 07:38:18;;;;;;;12.98;8.45;;;;;;;11.66;47.09;94285.88;4959456;28;20206;-68
2023/04/03 07:40:48;;;;;;;13.05;8.55;;;;;;;11.86;46.78;94287.06;4966627;28;20228;-64
2023/04/03 07:43:14;;;;;;;12.30;8.25;;;;;;;11.97;46.51;94277.09;4990804;28;20307;-70
2023/04/03 07:45:40;;;;;;;16.23;8.43;;;;;;;12.00;46.51;94282.84;4963100;28;20213;-71
2023/04/03 07:48:06;;;;;;;17.88;8.77;;;;;;;12.18;46.12;94279.03;4959620;28;20235;-71
2023/04/03 07:50:32;;;;;;;14.52;9.35;;;;;;;12.14;45.94;94266.22;4962969;28;21127;-68
2023/04/03 07:52:58;;;;;;;16.15;9.80;;;;;;;12.03;46.63;94284.28;4961743;28;20221;-64
2023/04/03 07:55:24;;;;;;;18.67;11.10;;;;;;;12.03;46.43;94271.94;4992352;28;20239;-66
2023/04/03 07:57:49;;;;;;;16.00;11.20;;;;;;;12.00;46.68;94272.31;4962730;28;20223;-68
2023/04/03 08:00:17;;;;;;;15.68;11.02;;;;;;;12.20;46.08;94272.59;4990585;28;20223;-70
2023/04/03 08:02:44;;;;;;;24.58;15.20;;;;;;;12.17;46.09;94259.78;4969054;28;20238;-67
2023/04/03 08:05:10;;;;;;;27.45;18.50;;;;;;;12.24;45.90;94258.06;4968251;28;20173;-66
2023/04/03 08:07:37;;;;;;;27.67;20.52;;;;;;;12.34;45.82;94271.78;4993848;28;20246;-68
2023/04/03 08:10:03;;;;;;;32.35;22.55;;;;;;;12.32;45.93;94273.81;4965201;28;20227;-64
2023/04/03 08:12:29;;;;;;;26.40;20.75;;;;;;;12.31;45.73;94263.44;4967430;28;20218;-69
2023/04/03 08:14:55;;;;;;;23.40;19.33;;;;;;;12.44;45.17;94262.81;4960347;28;20217;-66
2023/04/03 08:17:21;;;;;;;22.27;18.52;;;;;;;12.12;45.92;94262.94;4963520;28;20184;-67
2023/04/03 08:19:46;;;;;;;26.08;18.48;;;;;;;12.36;45.46;94261.88;4958926;28;20661;-66
2023/04/03 08:22:12;;;;;;;24.98;18.38;;;;;;;12.47;45.44;94263.25;4971510;28;20220;-64
2023/04/03 08:24:38;;;;;;;24.58;18.98;;;;;;;12.48;45.29;94259.63;4969581;28;20212;-65
2023/04/03 08:27:03;;;;;;;23.35;17.50;;;;;;;12.55;45.18;94257.06;4967840;28;20227;-66
2023/04/03 08:29:29;;;;;;;20.27;17.00;;;;;;;12.50;45.36;94262.88;4966519;28;20208;-66
2023/04/03 08:31:55;;;;;;;28.98;17.02;;;;;;;12.71;45.04;94259.53;4965222;28;20221;-65
2023/04/03 08:34:20;;;;;;;22.05;15.82;;;;;;;12.86;44.75;94258.69;4961148;28;20216;-64
2023/04/03 08:36:46;;;;;;;19.25;15.88;;;;;;;12.95;44.48;94249.66;4995655;28;20224;-65
2023/04/03 08:39:12;;;;;;;26.00;14.73;;;;;;;12.97;44.30;94237.13;4971365;28;20215;-64
2023/04/03 08:41:46;;;;;;;21.60;14.52;;;;;;;13.06;44.21;94235.19;4996242;28;20656;-66
2023/04/03 08:44:24;;;;;;;19.80;14.65;;;;;;;13.07;43.97;94242.91;4961388;28;20192;-65
2023/04/03 08:46:56;;;;;;;17.20;13.57;;;;;;;13.06;44.01;94235.97;4963452;28;21369;-65
2023/04/03 08:49:35;;;;;;;19.83;13.55;;;;;;;12.50;44.89;94238.34;4990286;28;20228;-64
2023/04/03 08:52:09;;;;;;;20.40;14.27;;;;;;;12.82;44.18;94234.50;4963459;28;20294;-64
2023/04/03 08:54:41;;;;;;;22.83;13.35;;;;;;;13.03;44.42;94236.34;4996170;28;20238;-65
2023/04/03 08:57:07;;;;;;;27.80;13.40;;;;;;;13.20;43.80;94229.03;4966551;28;20230;-66
2023/04/03 08:59:36;;;;;;;21.35;13.55;;;;;;;13.32;43.75;94218.84;4965347;28;20591;-66
2023/04/03 09:02:13;;;;;;;19.83;13.60;;;;;;;13.30;43.56;94218.19;4963344;28;20321;-66
2023/04/03 09:04:38;;;;;;;16.75;12.23;;;;;;;13.42;43.32;94214.06;4964767;28;20232;-66
2023/04/03 09:07:14;;;;;;;16.30;12.40;;;;;;;13.56;43.00;94218.44;4998387;28;20224;-65
2023/04/03 09:09:41;;;;;;;14.35;11.65;;;;;;;13.51;42.86;94212.91;4967419;28;20219;-65
2023/04/03 09:12:10;;;;;;;16.67;11.40;;;;;;;13.76;42.25;94210.69;4975253;28;20293;-66
2023/04/03 09:14:39;;;;;;;16.98;9.80;;;;;;;13.54;42.43;94201.97;4988356;28;20743;-66
2023/04/03 09:17:30;;;;;;;16.77;9.98;;;;;;;13.32;42.98;94203.00;4998483;28;20207;-65
2023/04/03 09:20:09;;;;;;;16.20;10.65;;;;;;;13.35;43.38;94198.16;4946827;28;20221;-66
2023/04/03 09:22:40;;;;;;;17.65;10.90;;;;;;;13.49;43.33;94193.78;4961829;28;20224;-63
2023/04/03 09:25:16;;;;;;;16.08;10.98;;;;;;;13.48;43.47;94194.00;4957974;28;20224;-62
2023/04/03 09:27:42;;;;;;;18.30;11.05;;;;;;;13.31;43.62;94186.34;4964261;28;20236;-63
2023/04/03 09:30:17;;;;;;;21.10;10.88;;;;;;;13.59;42.93;94183.72;4946810;28;20228;-62
2023/04/03 09:32:47;;;;;;;14.32;9.60;;;;;;;13.72;42.42;94176.94;4943133;28;20187;-62
2023/04/03 09:35:30;;;;;;;14.43;8.75;;;;;;;13.91;42.08;94178.91;4948030;28;20212;-63
2023/04/03 09:38:00;;;;;;;14.38;9.25;;;;;;;13.67;42.59;94182.78;4948761;28;20266;-62
2023/04/03 09:40:26;;;;;;;15.38;9.65;;;;;;;13.81;42.44;94181.06;4964264;28;20216;-62
2023/04/03 09:42:53;;;;;;;15.38;8.25;;;;;;;13.62;42.83;94180.72;4948156;28;20231;-62
2023/04/03 09:45:32;;;;;;;10.48;6.07;;;;;;;13.45;42.29;94174.06;4948160;28;20228;-62
2023/04/03 09:48:13;;;;;;;7.32;6.22;;;;;;;13.66;42.13;94170.59;4962940;28;20232;-63
2023/04/03 09:50:50;;;;;;;12.13;6.72;;;;;;;13.95;41.32;94166.91;4958813;28;20228;-63
2023/04/03 09:53:41;;;;;;;9.48;6.00;;;;;;;14.05;40.89;94171.88;4962067;28;20205;-64
2023/04/03 09:56:16;;;;;;;11.32;5.68;;;;;;;13.98;40.81;94163.91;4960223;28;20217;-63
2023/04/03 09:58:48;;;;;;;7.95;4.50;;;;;;;14.07;40.08;94154.00;4990430;28;20216;-63
2023/04/03 10:01:29;;;;;;;5.03;3.30;;;;;;;14.08;39.47;94158.25;4962084;28;20227;-63
2023/04/03 10:04:19;;;;;;;6.72;3.92;;;;;;;14.12;39.60;94157.69;4964338;28;20228;-63
2023/04/03 10:06:51;;;;;;;9.13;4.40;;;;;;;14.05;40.15;94162.09;4953692;28;20237;-63
2023/04/03 10:09:28;;;;;;;8.48;4.82;;;;;;;14.03;40.27;94161.50;4950687;28;20338;-63
2023/04/03 10:12:06;;;;;;;7.35;5.00;;;;;;;13.83;41.20;94157.91;4954770;28;22551;-63
2023/04/03 10:14:35;;;;;;;5.57;3.58;;;;;;;13.82;40.79;94157.09;4994049;28;20177;-63
2023/04/03 10:17:23;;;;;;;8.88;5.72;;;;;;;13.82;40.83;94158.91;4971542;28;20216;-64
2023/04/03 10:19:58;;;;;;;10.85;7.13;;;;;;;13.78;42.13;94157.66;4971709;28;20224;-64
2023/04/03 10:22:51;;;;;;;17.15;8.05;;;;;;;13.76;42.39;94157.03;4958388;28;20303;-63
2023/04/03 10:25:41;;;;;;;12.25;7.97;;;;;;;13.72;42.50;94151.31;4975065;28;20255;-63
2023/04/03 10:28:14;;;;;;;14.70;7.90;;;;;;;13.78;42.34;94144.44;4971731;28;20233;-63
2023/04/03 10:30:49;;;;;;;11.48;5.85;;;;;;;13.81;42.23;94139.59;4957570;28;20304;-63
2023/04/03 10:33:51;;;;;;;8.50;6.47;;;;;;;13.77;41.83;94140.19;4966339;28;20271;-63
2023/04/03 10:36:23;;;;;;;7.28;4.25;;;;;;;13.80;41.53;94140.59;4996999;28;20224;-63
2023/04/03 10:38:51;;;;;;;6.10;4.03;;;;;;;13.79;41.27;94132.88;4970777;28;20215;-63
2023/04/03 10:41:35;;;;;;;4.90;4.38;;;;;;;13.87;40.73;94124.78;4970455;28;20189;-63
2023/04/03 10:44:20;;;;;;;4.95;3.13;;;;;;;13.85;40.46;94122.34;5000650;28;20223;-64
2023/04/03 10:46:52;;;;;;;3.13;2.80;;;;;;;13.85;40.40;94110.97;4983380;28;20254;-63
2023/04/03 10:49:29;;;;;;;4.18;3.20;;;;;;;13.76;40.69;94120.03;4964410;28;20275;-63
2023/04/03 10:52:01;;;;;;;9.23;4.50;;;;;;;13.79;41.29;94119.66;4964305;28;20310;-64
2023/04/03 10:54:36;;;;;;;4.78;3.15;;;;;;;13.28;42.37;94114.59;4963367;28;20231;-64
2023/04/03 10:57:05;;;;;;;4.80;3.30;;;;;;;13.24;43.03;94128.16;4964369;28;20212;-63
2023/04/03 10:59:30;;;;;;;8.10;2.72;;;;;;;13.30;42.62;94117.88;4969222;28;20198;-64
2023/04/03 11:02:20;;;;;;;3.22;2.80;;;;;;;13.37;43.11;94126.69;4969768;28;20227;-63
2023/04/03 11:04:51;;;;;;;5.05;2.92;;;;;;;13.29;44.68;94126.81;4996741;28;20660;-65
2023/04/03 11:07:31;;;;;;;4.10;2.90;;;;;;;13.34;45.15;94127.03;4995604;28;20235;-63
2023/04/03 11:10:13;;;;;;;4.50;2.70;;;;;;;13.38;45.74;94139.66;4961592;28;20229;-64
2023/04/03 11:12:44;;;;;;;6.07;3.10;;;;;;;13.44;46.21;94143.38;4982926;28;20304;-64
2023/04/03 11:15:19;;;;;;;3.08;2.33;;;;;;;13.42;46.55;94145.41;4967746;28;20226;-64
2023/04/03 11:18:15;;;;;;;3.17;2.55;;;;;;;13.32;49.10;94147.53;4962649;28;20188;-65
2023/04/03 11:20:57;;;;;;;3.35;2.30;;;;;;;13.22;48.95;94146.00;4947900;28;20306;-65
2023/04/03 11:23:27;;;;;;;3.90;2.65;;;;;;;13.24;50.05;94132.63;4948415;28;20204;-64
2023/04/03 11:25:56;;;;;;;3.65;2.67;;;;;;;13.33;51.41;94141.25;4951078;28;20697;-64
2023/04/03 11:28:21;;;;;;;3.20;2.90;;;;;;;13.31;51.52;94132.69;4945942;28;20327;-65
2023/04/03 11:31:00;;;;;;;3.78;3.17;;;;;;;13.16;52.26;94140.66;4944984;28;20323;-64
2023/04/03 11:33:35;;;;;;;3.92;2.90;;;;;;;13.33;53.17;94135.97;4952502;28;20216;-65
2023/04/03 11:36:09;;;;;;;4.10;3.13;;;;;;;13.20;55.61;94128.72;4967877;28;20314;-65